Time;durP1;ratioP1;P1;durP2;ratioP2;P2;SDS_P1;SDS_P2;PMS_P1;PMS_P2;Temp;Humidity;BMP_temperature;BMP_pressure;BME280_temperature;BME280_humidity;BME280_pressure;Samples;Min_cycle;Max_cycle;Signal;HPM_P1;HPM_P2
2021/06/25 00:00:52;;;;;;;1.05;1.05;;;;;;;;;;5130784;28;20046;-67
2021/06/25 00:03:19;;;;;;;1.92;1.05;;;;;;;;;;5130113;27;20074;-67
2021/06/25 00:05:45;;;;;;;1.30;1.15;;;;;;;;;;5130780;28;20425;-68
2021/06/25 00:08:11;;;;;;;1.38;1.05;;;;;;;;;;5130393;28;20051;-68
2021/06/25 00:10:37;;;;;;;2.03;1.10;;;;;;;;;;5130857;28;20518;-68
2021/06/25 00:13:03;;;;;;;2.03;1.27;;;;;;;;;;5130638;28;20128;-67
2021/06/25 00:15:29;;;;;;;1.25;1.10;;;;;;;;;;5130132;28;20505;-68
2021/06/25 00:17:58;;;;;;;1.23;1.13;;;;;;;;;;5131138;28;20057;-67
2021/06/25 00:20:25;;;;;;;1.90;1.77;;;;;;;;;;5130040;28;20051;-67
2021/06/25 00:22:51;;;;;;;2.88;1.70;;;;;;;;;;5130737;28;20078;-68
2021/06/25 00:25:17;;;;;;;1.17;1.10;;;;;;;;;;5129899;28;20096;-68
2021/06/25 00:27:44;;;;;;;1.80;1.05;;;;;;;;;;5130823;28;20246;-68
2021/06/25 00:30:11;;;;;;;1.95;1.73;;;;;;;;;;5130260;28;20096;-68
2021/06/25 00:32:37;;;;;;;1.35;1.05;;;;;;;;;;5130270;28;20039;-68
2021/06/25 00:35:03;;;;;;;1.15;1.05;;;;;;;;;;5129714;28;20462;-68
2021/06/25 00:37:29;;;;;;;1.10;1.00;;;;;;;;;;5130034;28;20077;-68
2021/06/25 00:39:55;;;;;;;1.70;1.45;;;;;;;;;;5130489;28;20047;-67
2021/06/25 00:42:21;;;;;;;1.27;1.17;;;;;;;;;;5129255;28;20035;-68
2021/06/25 00:44:47;;;;;;;0.88;0.80;;;;;;;;;;5129398;28;20481;-68
2021/06/25 00:47:13;;;;;;;1.63;1.52;;;;;;;;;;5129793;28;20091;-68
2021/06/25 00:49:40;;;;;;;2.05;1.48;;;;;;;;;;5130160;28;20035;-67
2021/06/25 00:52:07;;;;;;;1.40;1.30;;;;;;;;;;5130126;28;20516;-68
2021/06/25 00:54:33;;;;;;;1.42;1.33;;;;;;;;;;5122062;28;20055;-68
2021/06/25 00:56:59;;;;;;;2.60;1.58;;;;;;;;;;5109710;28;20053;-67
2021/06/25 00:59:25;;;;;;;3.70;1.42;;;;;;;;;;5109130;28;20476;-68
2021/06/25 01:01:51;;;;;;;1.05;0.93;;;;;;;;;;5109573;28;20054;-67
2021/06/25 01:04:17;;;;;;;1.45;1.00;;;;;;;;;;5090280;28;20135;-68
2021/06/25 01:06:44;;;;;;;1.23;1.10;;;;;;;;;;5109277;28;20434;-68
2021/06/25 01:09:10;;;;;;;1.58;1.15;;;;;;;;;;5109137;28;20097;-68
2021/06/25 01:11:36;;;;;;;1.75;1.38;;;;;;;;;;5109439;28;20516;-67
2021/06/25 01:14:03;;;;;;;2.08;1.92;;;;;;;;;;5108669;28;20051;-67
2021/06/25 01:16:29;;;;;;;1.58;1.40;;;;;;;;;;5108685;28;20497;-68
2021/06/25 01:18:55;;;;;;;2.85;1.27;;;;;;;;;;5109402;28;20043;-68
2021/06/25 01:21:21;;;;;;;3.03;1.50;;;;;;;;;;5108770;28;20075;-68
2021/06/25 01:23:47;;;;;;;1.65;1.55;;;;;;;;;;5108939;28;20131;-67
2021/06/25 01:26:13;;;;;;;1.33;1.23;;;;;;;;;;5108507;28;20056;-68
2021/06/25 01:28:39;;;;;;;0.85;0.85;;;;;;;;;;5109426;28;20077;-68
2021/06/25 01:31:06;;;;;;;2.10;1.58;;;;;;;;;;5108753;28;20044;-68
2021/06/25 01:33:33;;;;;;;1.50;1.27;;;;;;;;;;5108489;28;20059;-67
2021/06/25 01:35:59;;;;;;;1.55;1.45;;;;;;;;;;5108995;28;20056;-68
2021/06/25 01:38:26;;;;;;;0.75;0.75;;;;;;;;;;5108592;28;20472;-68
2021/06/25 01:40:52;;;;;;;3.38;1.23;;;;;;;;;;5109176;28;20047;-67
2021/06/25 01:43:19;;;;;;;1.10;1.00;;;;;;;;;;5108205;28;20288;-68
2021/06/25 01:45:45;;;;;;;1.10;1.00;;;;;;;;;;5108904;28;20069;-67
2021/06/25 01:48:12;;;;;;;1.30;1.20;;;;;;;;;;5108547;28;20138;-68
2021/06/25 01:50:39;;;;;;;3.05;1.40;;;;;;;;;;5108866;28;20172;-67
2021/06/25 01:53:09;;;;;;;1.45;1.35;;;;;;;;;;5108488;28;20132;-68
2021/06/25 01:55:40;;;;;;;1.23;1.00;;;;;;;;;;5124535;28;20092;-67
2021/06/25 01:58:12;;;;;;;0.88;0.80;;;;;;;;;;5129178;28;20192;-68
2021/06/25 02:00:39;;;;;;;0.77;0.77;;;;;;;;;;5129578;28;20047;-67
2021/06/25 02:03:05;;;;;;;2.03;1.73;;;;;;;;;;5129126;28;20436;-67
2021/06/25 02:05:31;;;;;;;1.88;1.10;;;;;;;;;;5128657;28;20538;-67
2021/06/25 02:07:57;;;;;;;3.10;2.47;;;;;;;;;;5129281;28;20130;-67
2021/06/25 02:10:23;;;;;;;1.92;1.58;;;;;;;;;;5128524;28;20532;-67
2021/06/25 02:12:49;;;;;;;1.60;1.25;;;;;;;;;;5129056;28;20087;-67
2021/06/25 02:15:15;;;;;;;1.40;1.30;;;;;;;;;;5127824;28;20482;-67
2021/06/25 02:17:41;;;;;;;1.40;1.20;;;;;;;;;;5128927;28;20043;-67
2021/06/25 02:20:08;;;;;;;1.08;1.00;;;;;;;;;;5128751;28;20493;-67
2021/06/25 02:22:35;;;;;;;0.98;0.93;;;;;;;;;;5128645;28;20058;-67
2021/06/25 02:25:01;;;;;;;1.20;1.10;;;;;;;;;;5128531;27;20051;-67
2021/06/25 02:27:27;;;;;;;0.95;0.90;;;;;;;;;;5131931;28;20055;-67
2021/06/25 02:29:53;;;;;;;1.45;1.33;;;;;;;;;;5132324;28;20147;-67
2021/06/25 02:32:19;;;;;;;2.00;1.00;;;;;;;;;;5131820;28;20513;-67
2021/06/25 02:34:45;;;;;;;1.45;1.30;;;;;;;;;;5131669;28;20049;-67
2021/06/25 02:37:11;;;;;;;1.45;1.35;;;;;;;;;;5131774;28;20043;-67
2021/06/25 02:39:37;;;;;;;2.28;1.20;;;;;;;;;;5132433;28;20486;-67
2021/06/25 02:42:04;;;;;;;1.73;1.63;;;;;;;;;;5132272;28;20130;-67
2021/06/25 02:44:30;;;;;;;1.65;1.55;;;;;;;;;;5131111;28;20047;-67
2021/06/25 02:46:57;;;;;;;1.23;1.17;;;;;;;;;;5132068;28;20431;-67
2021/06/25 02:49:23;;;;;;;1.88;1.27;;;;;;;;;;5131377;28;20107;-67
2021/06/25 02:51:49;;;;;;;2.33;1.00;;;;;;;;;;5131939;28;20050;-67
2021/06/25 02:54:15;;;;;;;3.28;1.70;;;;;;;;;;5126653;28;20040;-67
2021/06/25 02:56:41;;;;;;;1.17;1.00;;;;;;;;;;5111591;28;20039;-67
2021/06/25 02:59:07;;;;;;;2.63;1.10;;;;;;;;;;5111214;28;20461;-67
2021/06/25 03:01:33;;;;;;;1.83;1.55;;;;;;;;;;5111041;28;20052;-67
2021/06/25 03:03:59;;;;;;;2.30;1.13;;;;;;;;;;5110985;28;20059;-67
2021/06/25 03:06:26;;;;;;;1.30;1.20;;;;;;;;;;5110756;28;20115;-67
2021/06/25 03:08:52;;;;;;;2.03;1.85;;;;;;;;;;5111507;28;20505;-67
2021/06/25 03:11:18;;;;;;;1.42;1.33;;;;;;;;;;5110842;28;20052;-67
2021/06/25 03:13:44;;;;;;;0.70;0.70;;;;;;;;;;5110991;28;20074;-67
2021/06/25 03:16:10;;;;;;;1.80;1.38;;;;;;;;;;5110719;28;20115;-67
2021/06/25 03:18:37;;;;;;;0.85;0.85;;;;;;;;;;5111522;28;20082;-67
2021/06/25 03:21:03;;;;;;;1.52;1.00;;;;;;;;;;5111333;28;20067;-67
2021/06/25 03:23:29;;;;;;;1.08;0.95;;;;;;;;;;5110153;28;20050;-67
2021/06/25 03:25:55;;;;;;;1.98;1.15;;;;;;;;;;5110847;28;20081;-67
2021/06/25 03:28:21;;;;;;;1.77;1.05;;;;;;;;;;5110420;28;20235;-67
2021/06/25 03:30:47;;;;;;;1.17;1.17;;;;;;;;;;5111061;28;20459;-67
2021/06/25 03:33:13;;;;;;;1.80;1.23;;;;;;;;;;5110113;28;20055;-67
2021/06/25 03:35:39;;;;;;;3.10;1.50;;;;;;;;;;5110828;28;20048;-67
2021/06/25 03:38:05;;;;;;;1.35;1.27;;;;;;;;;;5127076;28;20051;-67
2021/06/25 03:40:34;;;;;;;0.93;0.88;;;;;;;;;;5130608;28;20047;-67
2021/06/25 03:43:00;;;;;;;1.00;0.90;;;;;;;;;;5129236;28;20134;-67
2021/06/25 03:45:26;;;;;;;1.50;1.00;;;;;;;;;;5130557;28;20050;-67
2021/06/25 03:47:52;;;;;;;1.48;1.35;;;;;;;;;;5131195;28;20540;-67
2021/06/25 03:50:19;;;;;;;1.38;1.23;;;;;;;;;;5130379;28;20051;-67
2021/06/25 03:52:45;;;;;;;1.63;1.27;;;;;;;;;;5131261;28;20050;-67
2021/06/25 03:55:11;;;;;;;1.23;1.15;;;;;;;;;;5130572;28;20501;-67
2021/06/25 03:57:38;;;;;;;1.38;1.17;;;;;;;;;;5115437;28;20522;-67
2021/06/25 04:00:05;;;;;;;1.92;0.98;;;;;;;;;;5110432;28;20116;-67
2021/06/25 04:02:31;;;;;;;1.35;1.25;;;;;;;;;;5109822;28;20168;-67
2021/06/25 04:04:57;;;;;;;2.08;1.42;;;;;;;;;;5110584;28;20138;-67
2021/06/25 04:07:26;;;;;;;2.22;1.45;;;;;;;;;;5110114;28;20316;-67
2021/06/25 04:09:52;;;;;;;1.33;1.13;;;;;;;;;;5110625;28;20120;-67
2021/06/25 04:12:18;;;;;;;0.82;0.82;;;;;;;;;;5109726;28;20044;-67
2021/06/25 04:14:44;;;;;;;1.83;1.73;;;;;;;;;;5110463;28;20048;-67
2021/06/25 04:17:11;;;;;;;2.10;1.45;;;;;;;;;;5109593;28;20469;-67
2021/06/25 04:19:37;;;;;;;1.48;1.38;;;;;;;;;;5110741;28;20043;-67
2021/06/25 04:22:03;;;;;;;2.83;1.20;;;;;;;;;;5109711;28;20051;-67
2021/06/25 04:24:29;;;;;;;1.00;0.90;;;;;;;;;;5109612;28;20203;-67
2021/06/25 04:26:55;;;;;;;1.15;0.98;;;;;;;;;;5110345;28;20053;-67
2021/06/25 04:29:21;;;;;;;1.30;1.20;;;;;;;;;;5109605;28;20478;-67
2021/06/25 04:31:52;;;;;;;1.67;1.55;;;;;;;;;;5109523;28;20052;-67
2021/06/25 04:34:19;;;;;;;1.85;1.70;;;;;;;;;;5109657;28;20039;-67
2021/06/25 04:36:45;;;;;;;1.75;1.65;;;;;;;;;;5109960;28;20092;-67
2021/06/25 04:39:11;;;;;;;2.05;1.67;;;;;;;;;;5109720;28;20043;-67
2021/06/25 04:41:37;;;;;;;1.50;1.40;;;;;;;;;;5109420;28;20062;-67
2021/06/25 04:44:04;;;;;;;2.05;1.55;;;;;;;;;;5109601;28;20417;-67
2021/06/25 04:46:30;;;;;;;1.42;1.33;;;;;;;;;;5109349;28;20056;-67
2021/06/25 04:48:56;;;;;;;2.42;1.00;;;;;;;;;;5109065;28;20056;-67
2021/06/25 04:51:22;;;;;;;1.05;0.95;;;;;;;;;;5108334;28;20048;-67
2021/06/25 04:53:48;;;;;;;1.50;1.40;;;;;;;;;;5109420;28;20039;-67
2021/06/25 04:56:14;;;;;;;1.88;1.30;;;;;;;;;;5112646;28;20567;-67
2021/06/25 04:58:41;;;;;;;1.33;1.23;;;;;;;;;;5130118;28;20043;-67
2021/06/25 05:01:07;;;;;;;1.30;1.20;;;;;;;;;;5129067;28;20055;-67
2021/06/25 05:03:33;;;;;;;2.13;1.63;;;;;;;;;;5129635;28;20086;-67
2021/06/25 05:05:59;;;;;;;1.23;1.13;;;;;;;;;;5130062;28;20055;-67
2021/06/25 05:08:26;;;;;;;1.50;1.40;;;;;;;;;;5129661;28;20854;-67
2021/06/25 05:10:52;;;;;;;2.58;1.42;;;;;;;;;;5129776;28;20050;-67
2021/06/25 05:13:18;;;;;;;1.77;1.67;;;;;;;;;;5129093;28;20173;-67
2021/06/25 05:15:44;;;;;;;2.00;1.90;;;;;;;;;;5129769;28;20521;-67
2021/06/25 05:18:11;;;;;;;1.23;1.13;;;;;;;;;;5129359;28;20055;-67
2021/06/25 05:20:37;;;;;;;1.50;1.40;;;;;;;;;;5129222;28;20497;-67
2021/06/25 05:23:03;;;;;;;2.08;1.83;;;;;;;;;;5129381;28;20086;-67
2021/06/25 05:25:29;;;;;;;3.10;1.50;;;;;;;;;;5129392;28;20090;-67
2021/06/25 05:27:55;;;;;;;1.50;1.40;;;;;;;;;;5129811;28;20047;-67
2021/06/25 05:30:21;;;;;;;2.35;1.33;;;;;;;;;;5128749;28;20477;-67
2021/06/25 05:32:48;;;;;;;1.65;1.55;;;;;;;;;;5129073;28;20046;-67
2021/06/25 05:35:14;;;;;;;2.45;1.40;;;;;;;;;;5128879;28;20063;-67
2021/06/25 05:37:40;;;;;;;2.00;1.80;;;;;;;;;;5129864;28;20047;-67
2021/06/25 05:40:06;;;;;;;1.83;1.63;;;;;;;;;;5129554;28;20043;-67
2021/06/25 05:42:32;;;;;;;2.05;1.27;;;;;;;;;;5128647;28;20031;-67
2021/06/25 05:44:58;;;;;;;2.50;1.30;;;;;;;;;;5129556;28;20043;-67
2021/06/25 05:47:24;;;;;;;2.88;1.67;;;;;;;;;;5129148;28;20118;-67
2021/06/25 05:49:50;;;;;;;2.00;1.52;;;;;;;;;;5129520;28;20139;-67
2021/06/25 05:52:17;;;;;;;2.70;1.58;;;;;;;;;;5109828;28;20047;-67
2021/06/25 05:54:43;;;;;;;4.30;2.00;;;;;;;;;;5129290;28;20129;-67
2021/06/25 05:57:09;;;;;;;2.15;1.95;;;;;;;;;;5117833;28;20521;-67
2021/06/25 05:59:35;;;;;;;5.15;3.30;;;;;;;;;;5109174;28;20097;-66
2021/06/25 06:02:01;;;;;;;4.57;2.33;;;;;;;;;;5114397;27;20484;-67
2021/06/25 06:04:27;;;;;;;5.00;1.92;;;;;;;;;;5128232;27;20047;-66
2021/06/25 06:06:53;;;;;;;4.10;3.13;;;;;;;;;;5131912;27;20062;-66
2021/06/25 06:09:19;;;;;;;4.90;2.40;;;;;;;;;;5130500;27;20042;-67
2021/06/25 06:11:45;;;;;;;5.28;2.80;;;;;;;;;;5131555;27;20047;-66
2021/06/25 06:14:11;;;;;;;5.35;3.55;;;;;;;;;;5128769;27;20048;-67
2021/06/25 06:16:38;;;;;;;7.32;3.60;;;;;;;;;;5128093;28;20047;-67
2021/06/25 06:19:05;;;;;;;6.05;3.10;;;;;;;;;;5122422;27;20393;-67
2021/06/25 06:31:10;;;;;;;4.53;4.00;;;;;;;;;;5116580;27;20055;-67
2021/06/25 06:32:44;;;;;;;3.63;2.90;;;;;;;;;;5128370;27;20240;-67
2021/06/25 06:35:10;;;;;;;7.85;4.80;;;;;;;;;;5128392;27;20059;-67
2021/06/25 06:37:36;;;;;;;4.82;3.88;;;;;;;;;;5127695;27;20051;-68
2021/06/25 06:40:02;;;;;;;4.22;3.15;;;;;;;;;;5122913;27;20047;-66
2021/06/25 06:42:28;;;;;;;9.15;3.35;;;;;;;;;;5128205;27;20051;-67
2021/06/25 06:44:54;;;;;;;4.60;3.10;;;;;;;;;;5106429;27;20050;-67
2021/06/25 06:47:20;;;;;;;3.55;2.70;;;;;;;;;;5126472;27;20047;-67
2021/06/25 06:49:46;;;;;;;5.90;2.88;;;;;;;;;;5112571;28;20051;-67
2021/06/25 06:52:12;;;;;;;5.03;3.78;;;;;;;;;;5123124;27;20066;-67
2021/06/25 06:54:38;;;;;;;5.38;3.22;;;;;;;;;;5130957;27;20046;-67
2021/06/25 06:57:05;;;;;;;5.00;3.08;;;;;;;;;;5129829;27;20126;-67
2021/06/25 06:59:31;;;;;;;4.55;2.47;;;;;;;;;;5129681;27;20059;-67
2021/06/25 07:01:57;;;;;;;3.65;2.47;;;;;;;;;;5127431;27;20039;-67
2021/06/25 07:04:23;;;;;;;5.15;2.65;;;;;;;;;;5137118;27;20489;-67
2021/06/25 07:06:49;;;;;;;5.88;2.88;;;;;;;;;;5140693;27;20082;-67
2021/06/25 07:09:15;;;;;;;3.92;2.83;;;;;;;;;;5126089;27;20052;-67
2021/06/25 07:11:41;;;;;;;8.77;6.70;;;;;;;;;;5128366;27;20501;-67
2021/06/25 07:14:08;;;;;;;7.35;6.68;;;;;;;;;;5130590;27;20058;-67
2021/06/25 07:16:34;;;;;;;9.15;8.05;;;;;;;;;;5128167;27;20055;-67
2021/06/25 07:19:00;;;;;;;11.23;7.60;;;;;;;;;;5127033;27;20410;-67
2021/06/25 07:21:26;;;;;;;9.50;6.72;;;;;;;;;;5128633;27;20099;-67
2021/06/25 07:23:52;;;;;;;8.90;5.30;;;;;;;;;;5129730;27;20375;-67
2021/06/25 07:26:20;;;;;;;4.95;4.18;;;;;;;;;;5127958;27;20529;-67
2021/06/25 07:28:46;;;;;;;4.72;4.28;;;;;;;;;;5129936;27;20408;-67
2021/06/25 07:31:12;;;;;;;4.60;3.53;;;;;;;;;;5128829;27;20059;-68
2021/06/25 07:33:38;;;;;;;4.90;3.00;;;;;;;;;;5129747;27;20070;-67
2021/06/25 07:36:04;;;;;;;2.72;2.50;;;;;;;;;;5129797;27;20485;-67
2021/06/25 07:38:30;;;;;;;3.95;2.90;;;;;;;;;;5129792;27;20502;-67
2021/06/25 07:40:57;;;;;;;2.72;2.38;;;;;;;;;;5129666;27;20488;-67
2021/06/25 07:43:23;;;;;;;2.65;2.20;;;;;;;;;;5128385;27;20043;-67
2021/06/25 07:45:49;;;;;;;2.30;2.08;;;;;;;;;;5129673;27;20074;-67
2021/06/25 07:48:15;;;;;;;3.53;2.75;;;;;;;;;;5127694;27;20035;-67
2021/06/25 07:50:41;;;;;;;3.15;2.47;;;;;;;;;;5125606;27;20057;-67
2021/06/25 07:53:10;;;;;;;2.33;2.13;;;;;;;;;;5128682;27;20501;-67
2021/06/25 07:55:42;;;;;;;3.53;1.85;;;;;;;;;;5129484;27;20043;-67
2021/06/25 07:58:10;;;;;;;4.22;1.90;;;;;;;;;;5128458;27;20099;-67
2021/06/25 08:00:36;;;;;;;7.57;1.70;;;;;;;;;;5128681;27;20057;-67
2021/06/25 08:03:02;;;;;;;2.78;2.00;;;;;;;;;;5129192;27;20063;-67
2021/06/25 08:05:28;;;;;;;2.67;2.47;;;;;;;;;;5127550;27;20089;-69
2021/06/25 08:07:54;;;;;;;2.22;1.90;;;;;;;;;;5126086;27;20051;-67
2021/06/25 08:10:20;;;;;;;3.17;1.75;;;;;;;;;;5126648;27;20093;-67
2021/06/25 08:12:46;;;;;;;2.42;2.22;;;;;;;;;;5129347;27;20031;-67
2021/06/25 08:15:13;;;;;;;3.38;2.45;;;;;;;;;;5127992;27;20130;-67
2021/06/25 08:17:39;;;;;;;3.45;2.55;;;;;;;;;;5126100;27;20039;-67
2021/06/25 08:20:06;;;;;;;2.75;2.55;;;;;;;;;;5128701;27;20051;-67
2021/06/25 08:22:32;;;;;;;4.60;2.83;;;;;;;;;;5127890;27;20100;-67
2021/06/25 08:24:58;;;;;;;4.60;2.97;;;;;;;;;;5128173;27;20039;-67
2021/06/25 08:27:25;;;;;;;4.40;2.90;;;;;;;;;;5128263;27;20161;-67
2021/06/25 08:29:51;;;;;;;3.90;2.92;;;;;;;;;;5129543;27;20055;-67
2021/06/25 08:32:17;;;;;;;5.20;3.03;;;;;;;;;;5128108;27;20532;-67
2021/06/25 08:34:43;;;;;;;4.45;3.15;;;;;;;;;;5128597;27;20062;-67
2021/06/25 08:37:09;;;;;;;5.78;2.33;;;;;;;;;;5128014;27;20497;-67
2021/06/25 08:39:35;;;;;;;4.50;2.88;;;;;;;;;;5128369;27;20174;-67
2021/06/25 08:42:03;;;;;;;3.00;2.67;;;;;;;;;;5127980;27;20046;-67
2021/06/25 08:44:33;;;;;;;3.70;3.38;;;;;;;;;;5127072;27;20070;-67
2021/06/25 08:46:59;;;;;;;5.53;3.03;;;;;;;;;;5128950;27;20043;-67
2021/06/25 08:49:27;;;;;;;6.57;3.28;;;;;;;;;;5128203;27;20095;-67
2021/06/25 08:51:54;;;;;;;4.90;3.22;;;;;;;;;;5129747;27;20058;-67
2021/06/25 08:54:20;;;;;;;3.78;3.45;;;;;;;;;;5127877;27;20557;-68
2021/06/25 08:56:46;;;;;;;2.65;2.45;;;;;;;;;;5126226;27;20149;-67
2021/06/25 08:59:18;;;;;;;3.72;3.42;;;;;;;;;;5127583;27;20089;-67
2021/06/25 09:01:45;;;;;;;6.22;3.50;;;;;;;;;;5125922;27;20096;-67
2021/06/25 09:04:29;;;;;;;3.45;3.10;;;;;;;;;;5122414;27;20044;-67
2021/06/25 09:06:55;;;;;;;2.95;2.70;;;;;;;;;;5130849;27;20050;-68
2021/06/25 09:09:21;;;;;;;5.60;3.75;;;;;;;;;;5125482;27;20137;-68
2021/06/25 09:12:06;;;;;;;4.05;3.42;;;;;;;;;;5128495;27;20054;-67
2021/06/25 09:14:52;;;;;;;4.07;3.67;;;;;;;;;;5127194;27;20093;-67
2021/06/25 09:17:18;;;;;;;4.32;3.92;;;;;;;;;;5123444;27;20047;-67
2021/06/25 09:19:44;;;;;;;6.82;3.67;;;;;;;;;;5125119;27;20047;-67
2021/06/25 09:22:10;;;;;;;3.85;3.53;;;;;;;;;;5127906;27;20054;-67
2021/06/25 09:24:37;;;;;;;3.67;3.38;;;;;;;;;;5128409;27;20225;-67
2021/06/25 09:27:07;;;;;;;6.15;3.35;;;;;;;;;;5110456;27;20047;-67
2021/06/25 09:29:36;;;;;;;4.15;3.30;;;;;;;;;;5128532;27;20421;-67
2021/06/25 09:32:04;;;;;;;6.45;3.75;;;;;;;;;;5127399;27;20047;-67
2021/06/25 09:34:36;;;;;;;3.97;3.58;;;;;;;;;;5127181;27;20354;-67
2021/06/25 09:37:03;;;;;;;7.88;3.45;;;;;;;;;;5128047;27;20039;-67
2021/06/25 09:39:30;;;;;;;3.55;3.25;;;;;;;;;;5128236;27;20047;-67
2021/06/25 09:41:56;;;;;;;4.82;4.43;;;;;;;;;;5128485;27;20081;-67
2021/06/25 09:44:24;;;;;;;4.28;3.22;;;;;;;;;;5127277;27;20050;-67
2021/06/25 09:46:51;;;;;;;4.68;3.60;;;;;;;;;;5107789;28;20059;-67
2021/06/25 09:49:24;;;;;;;3.25;3.05;;;;;;;;;;5107243;28;20135;-67
2021/06/25 09:51:57;;;;;;;6.28;4.13;;;;;;;;;;5107565;28;20506;-67
2021/06/25 09:54:23;;;;;;;;;;;;;;;;;;5115741;28;20066;-66
2021/06/25 09:56:54;;;;;;;3.92;3.63;;;;;;;;;;5120542;28;20366;-67
2021/06/25 10:00:09;;;;;;;4.43;2.88;;;;;;;;;;5106394;28;20046;-67
2021/06/25 10:02:27;;;;;;;6.57;3.58;;;;;;;;;;5094922;28;20058;-67
2021/06/25 10:05:19;;;;;;;7.93;3.65;;;;;;;;;;5105606;28;20044;-67
2021/06/25 10:07:45;;;;;;;4.05;2.85;;;;;;;;;;5105608;28;20043;-67
2021/06/25 10:10:12;;;;;;;3.75;3.45;;;;;;;;;;5107517;28;20085;-69
2021/06/25 10:12:40;;;;;;;4.43;3.10;;;;;;;;;;5107959;28;20436;-67
2021/06/25 10:15:06;;;;;;;8.88;4.35;;;;;;;;;;5107846;28;20043;-67
2021/06/25 10:17:35;;;;;;;4.93;3.22;;;;;;;;;;5107907;28;20166;-67
2021/06/25 10:20:12;;;;;;;3.92;3.35;;;;;;;;;;5128157;28;20084;-67
2021/06/25 10:22:42;;;;;;;3.95;3.53;;;;;;;;;;5086796;28;20072;-67
2021/06/25 10:25:09;;;;;;;3.75;3.00;;;;;;;;;;5099504;28;20521;-67
2021/06/25 10:27:36;;;;;;;4.07;3.70;;;;;;;;;;5107380;28;20086;-67
2021/06/25 10:30:03;;;;;;;4.78;2.88;;;;;;;;;;5108073;28;20067;-67
2021/06/25 10:32:29;;;;;;;6.75;3.20;;;;;;;;;;5106764;28;20079;-67
2021/06/25 10:34:55;;;;;;;5.13;3.97;;;;;;;;;;5108107;28;20043;-66
2021/06/25 10:37:22;;;;;;;6.03;3.22;;;;;;;;;;5107579;28;20039;-67
2021/06/25 10:39:49;;;;;;;5.65;3.75;;;;;;;;;;5108028;28;20056;-67
2021/06/25 10:42:15;;;;;;;4.68;4.15;;;;;;;;;;5107384;28;20081;-67
2021/06/25 10:44:44;;;;;;;4.25;3.85;;;;;;;;;;5108266;28;20542;-67
2021/06/25 10:47:27;;;;;;;4.20;3.60;;;;;;;;;;5108771;28;20646;-66
2021/06/25 10:49:59;;;;;;;4.05;3.75;;;;;;;;;;5111552;28;20459;-66
2021/06/25 10:52:29;;;;;;;3.75;3.45;;;;;;;;;;5110832;28;20475;-66
2021/06/25 10:55:02;;;;;;;4.28;3.47;;;;;;;;;;5111471;28;20078;-67
2021/06/25 10:57:28;;;;;;;4.25;3.85;;;;;;;;;;5096846;28;20086;-67
2021/06/25 10:59:54;;;;;;;6.60;3.38;;;;;;;;;;5114739;28;20063;-67
2021/06/25 11:02:39;;;;;;;3.63;3.33;;;;;;;;;;5129905;28;20779;-67
2021/06/25 11:05:26;;;;;;;4.15;3.53;;;;;;;;;;5131342;28;20047;-66
2021/06/25 11:08:00;;;;;;;4.97;3.13;;;;;;;;;;5131778;28;20051;-66
2021/06/25 11:10:27;;;;;;;4.25;3.85;;;;;;;;;;5130891;28;20138;-66
2021/06/25 11:13:29;;;;;;;5.78;3.58;;;;;;;;;;5131517;28;20051;-67
2021/06/25 11:16:03;;;;;;;4.53;4.03;;;;;;;;;;5048611;28;20552;-67
2021/06/25 11:18:32;;;;;;;3.67;3.38;;;;;;;;;;5106872;28;20043;-67
2021/06/25 11:21:06;;;;;;;4.10;3.13;;;;;;;;;;5111306;28;20068;-67
2021/06/25 11:23:38;;;;;;;5.97;4.10;;;;;;;;;;5110389;28;20055;-67
2021/06/25 11:26:24;;;;;;;4.40;3.42;;;;;;;;;;5110934;28;20051;-67
2021/06/25 11:29:08;;;;;;;4.10;3.67;;;;;;;;;;5110689;28;20050;-67
2021/06/25 11:31:34;;;;;;;3.25;2.97;;;;;;;;;;5110495;28;21302;-67
2021/06/25 11:34:02;;;;;;;4.07;3.70;;;;;;;;;;5126804;28;20108;-67
2021/06/25 11:36:31;;;;;;;5.75;4.07;;;;;;;;;;5129702;28;20130;-67
2021/06/25 11:38:59;;;;;;;4.03;2.83;;;;;;;;;;5130937;28;20039;-67
2021/06/25 11:41:27;;;;;;;5.57;3.50;;;;;;;;;;5127804;28;20050;-67
2021/06/25 11:43:53;;;;;;;4.15;3.70;;;;;;;;;;5130419;28;20051;-67
2021/06/25 11:46:20;;;;;;;6.65;3.63;;;;;;;;;;5130000;28;20136;-67
2021/06/25 11:48:47;;;;;;;4.43;3.80;;;;;;;;;;5130943;28;20189;-67
2021/06/25 11:51:14;;;;;;;3.17;2.88;;;;;;;;;;5126405;28;20039;-67
2021/06/25 11:53:44;;;;;;;5.68;3.75;;;;;;;;;;5109349;28;20040;-67
2021/06/25 11:56:19;;;;;;;4.82;3.42;;;;;;;;;;5106702;28;20417;-67
2021/06/25 11:59:03;;;;;;;4.32;2.78;;;;;;;;;;5092269;28;20055;-67
2021/06/25 12:01:29;;;;;;;3.70;3.40;;;;;;;;;;5108548;28;20717;-68
2021/06/25 12:03:56;;;;;;;4.65;3.95;;;;;;;;;;5109741;28;20449;-67
2021/06/25 12:06:23;;;;;;;3.33;3.03;;;;;;;;;;5108519;28;20474;-68
2021/06/25 12:08:52;;;;;;;4.32;2.58;;;;;;;;;;5107389;28;20134;-67
2021/06/25 12:11:18;;;;;;;4.47;4.07;;;;;;;;;;5107973;28;20132;-67
2021/06/25 12:13:45;;;;;;;3.90;3.50;;;;;;;;;;5109581;28;20131;-67
2021/06/25 12:16:11;;;;;;;3.53;3.22;;;;;;;;;;5108726;28;20044;-69
2021/06/25 12:18:45;;;;;;;3.90;3.58;;;;;;;;;;5096773;28;20062;-67
2021/06/25 12:21:15;;;;;;;5.50;3.33;;;;;;;;;;5091742;28;20044;-67
2021/06/25 12:23:42;;;;;;;3.83;3.55;;;;;;;;;;5092198;28;20490;-68
2021/06/25 12:26:21;;;;;;;4.75;4.35;;;;;;;;;;5103512;28;20103;-68
2021/06/25 12:28:48;;;;;;;3.47;3.17;;;;;;;;;;5109346;28;20059;-67
2021/06/25 12:31:20;;;;;;;3.45;3.15;;;;;;;;;;5107737;28;20055;-67
2021/06/25 12:33:47;;;;;;;7.07;3.80;;;;;;;;;;5121637;28;20421;-67
2021/06/25 12:36:14;;;;;;;3.65;3.35;;;;;;;;;;5107761;28;20248;-67
2021/06/25 12:38:41;;;;;;;4.50;2.95;;;;;;;;;;5108945;28;20040;-68
2021/06/25 12:41:09;;;;;;;3.05;2.78;;;;;;;;;;5108215;28;20043;-68
2021/06/25 12:43:39;;;;;;;3.63;3.33;;;;;;;;;;5106978;28;20138;-67
2021/06/25 12:46:13;;;;;;;5.32;3.03;;;;;;;;;;5102590;28;20048;-67
2021/06/25 12:48:59;;;;;;;3.65;3.28;;;;;;;;;;5109039;28;20054;-68
2021/06/25 12:51:27;;;;;;;4.72;3.85;;;;;;;;;;5107705;28;20051;-68
2021/06/25 12:53:55;;;;;;;5.82;3.25;;;;;;;;;;5109270;28;20504;-68
2021/06/25 12:56:23;;;;;;;3.10;2.47;;;;;;;;;;5103841;28;20050;-67
2021/06/25 12:59:09;;;;;;;4.40;3.15;;;;;;;;;;5070994;28;20508;-67
2021/06/25 13:01:40;;;;;;;3.55;3.25;;;;;;;;;;5102751;28;20526;-66
2021/06/25 13:04:22;;;;;;;6.90;4.60;;;;;;;;;;5108966;28;20422;-68
2021/06/25 13:06:52;;;;;;;3.22;2.92;;;;;;;;;;5106208;28;20055;-67
2021/06/25 13:09:22;;;;;;;3.10;2.80;;;;;;;;;;5105408;28;20043;-67
2021/06/25 13:11:50;;;;;;;4.75;2.83;;;;;;;;;;5104881;28;20068;-67
2021/06/25 13:14:31;;;;;;;3.67;3.10;;;;;;;;;;5107424;28;20512;-68
2021/06/25 13:16:59;;;;;;;3.05;2.85;;;;;;;;;;5107762;28;20047;-67
2021/06/25 13:19:28;;;;;;;5.97;3.85;;;;;;;;;;5094925;28;20512;-68
2021/06/25 13:21:54;;;;;;;3.63;3.00;;;;;;;;;;5088090;28;20521;-68
2021/06/25 13:24:35;;;;;;;4.80;3.95;;;;;;;;;;5089300;28;20056;-68
2021/06/25 13:27:05;;;;;;;6.50;4.38;;;;;;;;;;5108016;28;20044;-67
2021/06/25 13:29:44;;;;;;;4.88;4.13;;;;;;;;;;5102260;28;20116;-67
2021/06/25 13:32:14;;;;;;;4.78;4.28;;;;;;;;;;5104727;28;20418;-68
2021/06/25 13:34:50;;;;;;;5.30;3.95;;;;;;;;;;5109493;28;20047;-68
2021/06/25 13:37:16;;;;;;;3.95;3.40;;;;;;;;;;5107504;28;20040;-68
2021/06/25 13:39:52;;;;;;;3.92;3.58;;;;;;;;;;5108368;28;20051;-68
2021/06/25 13:42:18;;;;;;;17.55;5.43;;;;;;;;;;5106855;28;20051;-68
2021/06/25 13:44:44;;;;;;;35.47;7.57;;;;;;;;;;5107462;28;20043;-68
2021/06/25 13:47:12;;;;;;;12.57;4.70;;;;;;;;;;5106772;28;20047;-68
2021/06/25 13:49:42;;;;;;;8.02;2.95;;;;;;;;;;5107388;28;20071;-70
2021/06/25 13:52:27;;;;;;;6.72;5.25;;;;;;;;;;5106954;28;20065;-68
2021/06/25 13:55:12;;;;;;;5.50;4.32;;;;;;;;;;5106936;28;20550;-68
2021/06/25 13:57:57;;;;;;;4.35;3.83;;;;;;;;;;5108000;28;20044;-68
2021/06/25 14:00:30;;;;;;;4.35;3.90;;;;;;;;;;5107406;28;20032;-68
2021/06/25 14:02:56;;;;;;;;;;;;;;;;;;5108460;28;20060;-68
2021/06/25 14:05:22;;;;;;;3.95;3.42;;;;;;;;;;5106949;28;20278;-68
2021/06/25 14:07:55;;;;;;;5.28;3.85;;;;;;;;;;5107851;28;20093;-68
2021/06/25 14:10:22;;;;;;;4.68;4.05;;;;;;;;;;5107069;28;20131;-68
2021/06/25 14:12:48;;;;;;;4.00;3.63;;;;;;;;;;5107919;28;20036;-68
2021/06/25 14:15:14;;;;;;;6.72;4.03;;;;;;;;;;5121768;28;20047;-68
2021/06/25 14:17:40;;;;;;;5.88;4.07;;;;;;;;;;5116895;28;20059;-68
2021/06/25 14:20:08;;;;;;;3.95;3.65;;;;;;;;;;5107026;28;20035;-68
2021/06/25 14:22:34;;;;;;;4.05;3.65;;;;;;;;;;5110982;28;20483;-68
2021/06/25 14:25:00;;;;;;;4.45;3.95;;;;;;;;;;5111310;28;20405;-68
2021/06/25 14:27:27;;;;;;;5.38;3.35;;;;;;;;;;5110563;28;20059;-67
2021/06/25 14:29:53;;;;;;;3.13;2.83;;;;;;;;;;5130200;28;20083;-68
2021/06/25 14:32:19;;;;;;;3.17;2.88;;;;;;;;;;5130516;28;20088;-67
2021/06/25 14:34:45;;;;;;;3.42;3.17;;;;;;;;;;5131641;28;20076;-68
2021/06/25 14:37:11;;;;;;;4.65;3.10;;;;;;;;;;5130937;28;20043;-68
2021/06/25 14:39:37;;;;;;;3.72;3.42;;;;;;;;;;5131295;28;20578;-68
2021/06/25 14:42:04;;;;;;;4.55;3.45;;;;;;;;;;5132103;28;20076;-68
2021/06/25 14:44:30;;;;;;;4.05;3.65;;;;;;;;;;5130325;28;20203;-68
2021/06/25 14:46:56;;;;;;;5.00;4.57;;;;;;;;;;5118649;28;20046;-67
2021/06/25 14:49:22;;;;;;;5.40;3.42;;;;;;;;;;5110002;28;20051;-68
2021/06/25 14:51:48;;;;;;;4.03;3.20;;;;;;;;;;5110779;28;20043;-68
2021/06/25 14:54:14;;;;;;;3.95;3.17;;;;;;;;;;5103649;28;20077;-68
2021/06/25 14:56:40;;;;;;;3.85;3.22;;;;;;;;;;5112942;28;20102;-68